createdAt,value
2023-05-03T00:01:27.505Z,13.55
2023-05-03T00:03:54.195Z,13.48
2023-05-03T00:06:22.133Z,13.52
2023-05-03T00:08:48.975Z,13.32
2023-05-03T00:11:15.986Z,13.32
2023-05-03T00:13:42.846Z,14.10
2023-05-03T00:16:09.521Z,13.50
2023-05-03T00:18:36.374Z,13.35
2023-05-03T00:21:03.327Z,13.48
2023-05-03T00:23:30.045Z,13.07
2023-05-03T00:25:58.510Z,13.00
2023-05-03T00:28:26.004Z,12.35
2023-05-03T00:30:53.274Z,12.80
2023-05-03T00:33:19.934Z,13.38
2023-05-03T00:35:46.586Z,12.73
2023-05-03T00:38:15.378Z,12.55
2023-05-03T00:40:43.371Z,12.68
2023-05-03T00:43:12.453Z,12.93
2023-05-03T00:45:39.102Z,12.90
2023-05-03T00:48:06.538Z,12.70
2023-05-03T00:50:33.687Z,12.52
2023-05-03T00:53:00.452Z,12.45
2023-05-03T00:55:30.684Z,12.23
2023-05-03T00:57:57.722Z,12.40
2023-05-03T01:00:25.125Z,10.85
2023-05-03T01:02:51.981Z,12.13
2023-05-03T01:05:18.902Z,11.40
2023-05-03T01:07:51.564Z,11.60
2023-05-03T01:10:26.355Z,11.40
2023-05-03T01:13:05.962Z,11.48
2023-05-03T01:15:48.336Z,11.68
2023-05-03T01:18:18.750Z,12.75
2023-05-03T01:20:48.594Z,12.38
2023-05-03T01:23:36.694Z,12.48
2023-05-03T01:26:21.339Z,12.18
2023-05-03T01:28:48.117Z,12.63
2023-05-03T01:31:22.461Z,11.90
2023-05-03T01:34:05.826Z,12.77
2023-05-03T01:36:35.243Z,11.55
2023-05-03T01:39:06.850Z,12.13
2023-05-03T01:41:35.938Z,10.70
2023-05-03T01:44:03.608Z,11.35
2023-05-03T01:46:30.273Z,12.52
2023-05-03T01:48:56.968Z,11.35
2023-05-03T01:51:23.654Z,11.60
2023-05-03T01:53:50.604Z,11.93
2023-05-03T01:56:17.228Z,12.35
2023-05-03T01:58:44.050Z,12.13
2023-05-03T02:01:10.728Z,13.10
2023-05-03T02:03:37.348Z,12.93
2023-05-03T02:06:04.055Z,12.40
2023-05-03T02:08:30.888Z,12.30
2023-05-03T02:10:57.549Z,12.02
2023-05-03T02:13:24.129Z,12.38
2023-05-03T02:15:50.805Z,12.48
2023-05-03T02:18:18.413Z,11.75
2023-05-03T02:20:46.032Z,12.80
2023-05-03T02:23:13.127Z,12.48
2023-05-03T02:25:40.608Z,11.30
2023-05-03T02:28:07.466Z,12.65
2023-05-03T02:30:35.894Z,10.35
2023-05-03T02:33:02.691Z,11.70
2023-05-03T02:35:30.669Z,10.50
2023-05-03T02:37:57.644Z,11.02
2023-05-03T02:40:24.876Z,11.43
2023-05-03T02:42:52.419Z,10.43
2023-05-03T02:45:24.751Z,11.32
2023-05-03T02:47:52.066Z,11.60
2023-05-03T02:50:19.601Z,10.25
2023-05-03T02:52:46.549Z,10.98
2023-05-03T02:55:13.492Z,11.90
2023-05-03T02:57:42.626Z,10.70
2023-05-03T03:00:12.073Z,10.15
2023-05-03T03:02:38.957Z,10.35
2023-05-03T03:05:05.928Z,9.85
2023-05-03T03:07:32.680Z,10.15
2023-05-03T03:09:59.388Z,11.13
2023-05-03T03:12:29.117Z,9.30
2023-05-03T03:14:56.551Z,9.25
2023-05-03T03:17:23.789Z,9.20
2023-05-03T03:19:50.530Z,9.35
2023-05-03T03:22:17.562Z,9.05
2023-05-03T03:24:45.325Z,9.57
2023-05-03T03:27:12.048Z,9.52
2023-05-03T03:29:38.800Z,9.85
2023-05-03T03:32:06.330Z,9.68
2023-05-03T03:34:33.272Z,9.55
2023-05-03T03:37:01.072Z,8.95
2023-05-03T03:39:28.644Z,9.00
2023-05-03T03:41:55.322Z,9.30
2023-05-03T03:44:22.528Z,9.05
2023-05-03T03:46:49.245Z,10.15
2023-05-03T03:49:17.707Z,9.10
2023-05-03T03:51:44.497Z,8.90
2023-05-03T03:54:11.246Z,9.88
2023-05-03T03:56:43.433Z,8.68
2023-05-03T03:59:10.119Z,9.95
2023-05-03T04:01:37.727Z,9.43
2023-05-03T04:04:05.668Z,9.00
2023-05-03T04:06:33.349Z,10.57
2023-05-03T04:09:04.602Z,9.15
2023-05-03T04:11:33.925Z,10.68
2023-05-03T04:14:03.559Z,9.48
2023-05-03T04:16:31.303Z,10.20
2023-05-03T04:19:01.505Z,10.03
2023-05-03T04:21:28.876Z,10.10
2023-05-03T04:23:55.920Z,9.88
2023-05-03T04:26:31.108Z,9.05
2023-05-03T04:31:30.835Z,9.65
2023-05-03T04:33:58.033Z,9.45
2023-05-03T04:36:26.725Z,9.35
2023-05-03T04:38:54.816Z,9.07
2023-05-03T04:41:24.592Z,9.23
2023-05-03T04:43:53.387Z,9.73
2023-05-03T04:46:20.524Z,8.88
2023-05-03T04:48:47.954Z,8.57
2023-05-03T04:51:14.650Z,8.80
2023-05-03T04:53:42.870Z,8.80
2023-05-03T04:56:15.380Z,8.15
2023-05-03T04:58:44.558Z,9.13
2023-05-03T05:01:12.254Z,8.90
2023-05-03T05:03:39.249Z,9.07
2023-05-03T05:06:12.411Z,8.60
2023-05-03T05:08:40.844Z,8.07
2023-05-03T05:11:10.775Z,8.40
2023-05-03T05:13:37.499Z,7.95
2023-05-03T05:16:04.384Z,9.13
2023-05-03T05:18:32.425Z,8.98
2023-05-03T05:23:29.834Z,8.52
2023-05-03T05:26:00.697Z,8.48
2023-05-03T05:28:30.571Z,8.90
2023-05-03T05:30:57.290Z,8.30
2023-05-03T05:33:24.530Z,8.23
2023-05-03T05:35:52.499Z,7.80
2023-05-03T05:38:21.479Z,8.85
2023-05-03T05:40:50.450Z,8.15
2023-05-03T05:43:18.549Z,7.75
2023-05-03T05:45:46.487Z,8.75
2023-05-03T05:48:14.108Z,7.45
2023-05-03T05:50:42.443Z,7.43
2023-05-03T05:53:12.289Z,8.05
2023-05-03T05:55:44.550Z,7.60
2023-05-03T05:58:12.986Z,8.68
2023-05-03T06:00:45.468Z,7.38
2023-05-03T06:03:12.609Z,7.28
2023-05-03T06:05:39.691Z,7.32
2023-05-03T06:08:06.352Z,7.50
2023-05-03T06:10:33.633Z,7.50
2023-05-03T06:13:00.672Z,6.60
2023-05-03T06:15:28.368Z,7.57
2023-05-03T06:17:55.623Z,7.85
2023-05-03T06:20:24.548Z,7.68
2023-05-03T06:22:52.410Z,7.03
2023-05-03T06:25:19.157Z,6.38
2023-05-03T06:27:48.699Z,6.72
2023-05-03T06:30:16.850Z,6.63
2023-05-03T06:32:44.162Z,6.82
2023-05-03T06:35:12.643Z,7.07
2023-05-03T06:37:40.561Z,6.80
2023-05-03T06:40:07.813Z,7.07
2023-05-03T06:42:36.933Z,6.95
2023-05-03T06:45:08.335Z,6.43
2023-05-03T06:47:37.693Z,7.15
2023-05-03T06:50:05.096Z,6.40
2023-05-03T06:52:32.425Z,6.53
2023-05-03T06:54:59.404Z,6.75
2023-05-03T06:57:28.219Z,7.38
2023-05-03T06:59:55.572Z,6.45
2023-05-03T07:02:22.832Z,7.10
2023-05-03T07:04:49.885Z,7.30
2023-05-03T07:07:17.037Z,7.07
2023-05-03T07:09:44.172Z,6.57
2023-05-03T07:12:11.580Z,6.57
2023-05-03T07:14:40.051Z,6.63
2023-05-03T07:17:06.672Z,7.13
2023-05-03T07:19:33.304Z,7.35
2023-05-03T07:22:00.222Z,6.85
2023-05-03T07:24:26.930Z,7.13
2023-05-03T07:26:53.854Z,7.03
2023-05-03T07:29:21.066Z,7.05
2023-05-03T07:31:47.997Z,7.25
2023-05-03T07:34:14.804Z,7.03
2023-05-03T07:36:41.484Z,7.10
2023-05-03T07:39:08.531Z,6.85
2023-05-03T07:41:35.414Z,6.53
2023-05-03T07:44:02.068Z,6.32
2023-05-03T07:46:28.827Z,6.47
2023-05-03T07:48:55.593Z,6.55
2023-05-03T07:51:22.668Z,6.35
2023-05-03T07:53:49.314Z,7.20
2023-05-03T07:56:16.027Z,6.80
2023-05-03T07:58:45.014Z,6.72
2023-05-03T08:01:13.467Z,7.15
2023-05-03T08:03:40.619Z,6.35
2023-05-03T08:06:07.494Z,6.43
2023-05-03T08:08:35.824Z,6.93
2023-05-03T08:11:02.356Z,6.20
2023-05-03T08:13:29.025Z,6.95
2023-05-03T08:15:55.895Z,6.55
2023-05-03T08:18:23.861Z,6.82
2023-05-03T08:20:50.726Z,6.05
2023-05-03T08:23:18.021Z,6.95
2023-05-03T08:25:45.396Z,6.20
2023-05-03T08:28:11.976Z,6.97
2023-05-03T08:30:38.757Z,6.05
2023-05-03T08:33:05.786Z,6.70
2023-05-03T08:35:32.584Z,6.97
2023-05-03T08:37:59.390Z,6.22
2023-05-03T08:40:28.034Z,7.10
2023-05-03T08:42:56.861Z,5.60
2023-05-03T08:45:23.548Z,6.22
2023-05-03T08:47:54.405Z,6.55
2023-05-03T08:50:21.731Z,6.28
2023-05-03T08:52:48.662Z,6.05
2023-05-03T08:55:15.334Z,5.95
2023-05-03T08:57:42.546Z,7.30
2023-05-03T09:00:11.178Z,6.95
2023-05-03T09:02:39.681Z,6.53
2023-05-03T09:05:15.762Z,6.45
2023-05-03T09:08:01.077Z,6.55
2023-05-03T09:10:27.992Z,6.35
2023-05-03T09:12:59.882Z,6.78
2023-05-03T09:15:29.441Z,7.45
2023-05-03T09:18:11.345Z,5.95
2023-05-03T09:20:40.110Z,6.50
2023-05-03T09:23:08.190Z,7.70
2023-05-03T09:25:48.830Z,6.32
2023-05-03T09:28:17.384Z,6.32
2023-05-03T09:30:44.994Z,7.20
2023-05-03T09:33:12.131Z,6.50
2023-05-03T09:35:38.969Z,6.85
2023-05-03T09:38:06.189Z,6.70
2023-05-03T09:40:33.289Z,7.20
2023-05-03T09:43:11.201Z,7.00
2023-05-03T09:45:38.402Z,6.40
2023-05-03T09:48:06.681Z,6.65
2023-05-03T09:50:34.547Z,7.30
2023-05-03T09:53:03.767Z,7.32
2023-05-03T09:55:35.510Z,7.43
2023-05-03T09:58:09.056Z,7.20
2023-05-03T10:00:41.724Z,7.30
2023-05-03T10:03:11.327Z,6.63
2023-05-03T10:05:48.844Z,7.05
2023-05-03T10:08:24.285Z,7.13
2023-05-03T10:10:53.507Z,6.95
2023-05-03T10:13:23.484Z,6.88
2023-05-03T10:15:54.508Z,6.93
2023-05-03T10:18:24.086Z,6.40
2023-05-03T10:20:55.625Z,6.25
2023-05-03T10:23:22.418Z,6.57
2023-05-03T10:26:07.182Z,7.60
2023-05-03T10:28:34.293Z,6.65
2023-05-03T10:31:01.145Z,6.95
2023-05-03T10:33:37.293Z,6.38
2023-05-03T10:36:10.875Z,6.43
2023-05-03T10:38:37.925Z,6.55
2023-05-03T10:41:06.731Z,6.40
2023-05-03T10:43:33.353Z,6.68
2023-05-03T10:46:04.143Z,6.72
2023-05-03T10:48:32.023Z,6.57
2023-05-03T10:51:28.506Z,6.15
2023-05-03T10:53:55.124Z,5.60
2023-05-03T10:56:22.708Z,6.38
2023-05-03T10:58:50.658Z,6.05
2023-05-03T11:01:19.901Z,6.38
2023-05-03T11:04:05.291Z,6.03
2023-05-03T11:06:34.328Z,6.50
2023-05-03T11:09:01.820Z,5.88
2023-05-03T11:11:28.438Z,5.85
2023-05-03T11:13:56.357Z,5.72
2023-05-03T11:16:23.292Z,5.80
2023-05-03T11:18:50.494Z,6.07
2023-05-03T11:21:17.587Z,5.70
2023-05-03T11:23:44.713Z,6.43
2023-05-03T11:26:11.955Z,5.38
2023-05-03T11:28:39.648Z,5.50
2023-05-03T11:31:06.640Z,4.90
2023-05-03T11:33:35.208Z,4.97
2023-05-03T11:36:03.565Z,5.28
2023-05-03T11:38:34.128Z,4.88
2023-05-03T11:41:01.648Z,3.95
2023-05-03T11:43:29.062Z,4.22
2023-05-03T11:45:58.201Z,4.40
2023-05-03T11:48:26.157Z,5.18
2023-05-03T11:50:56.779Z,5.85
2023-05-03T11:53:24.727Z,5.45
2023-05-03T11:55:53.844Z,5.00
2023-05-03T11:58:22.502Z,5.05
2023-05-03T12:00:50.850Z,4.90
2023-05-03T12:03:33.343Z,5.15
2023-05-03T12:06:02.893Z,4.47
2023-05-03T12:08:36.686Z,4.72
2023-05-03T12:11:07.096Z,4.70
2023-05-03T12:13:38.667Z,5.05
2023-05-03T12:16:12.573Z,5.47
2023-05-03T12:18:55.796Z,4.93
2023-05-03T12:23:56.564Z,4.63
2023-05-03T12:26:25.295Z,4.50
2023-05-03T12:28:55.265Z,4.93
2023-05-03T12:31:23.459Z,5.10
2023-05-03T12:34:12.962Z,4.63
2023-05-03T12:36:38.171Z,5.15
2023-05-03T12:39:09.426Z,4.30
2023-05-03T12:44:10.274Z,4.32
2023-05-03T12:46:38.885Z,4.72
2023-05-03T12:49:08.094Z,4.78
2023-05-03T12:51:35.797Z,3.58
2023-05-03T12:54:10.172Z,4.57
2023-05-03T12:56:40.101Z,4.22
2023-05-03T12:59:38.999Z,4.95
2023-05-03T13:04:55.813Z,4.60
2023-05-03T13:07:15.195Z,4.40
2023-05-03T13:12:20.375Z,4.20
2023-05-03T13:14:48.284Z,3.60
2023-05-03T13:17:15.645Z,4.20
2023-05-03T13:19:44.328Z,4.50
2023-05-03T13:22:11.886Z,4.22
2023-05-03T13:24:38.571Z,4.07
2023-05-03T13:27:05.536Z,4.53
2023-05-03T13:29:32.140Z,3.92
2023-05-03T13:31:58.816Z,3.58
2023-05-03T13:34:26.204Z,4.35
2023-05-03T13:36:52.826Z,4.00
2023-05-03T13:39:19.619Z,3.50
2023-05-03T13:41:48.269Z,3.60
2023-05-03T13:44:15.223Z,3.65
2023-05-03T13:46:43.372Z,3.20
2023-05-03T13:49:10.526Z,3.47
2023-05-03T13:51:37.776Z,3.28
2023-05-03T13:54:05.858Z,2.85
2023-05-03T13:56:32.715Z,3.17
2023-05-03T13:58:59.382Z,3.15
2023-05-03T14:01:27.293Z,3.70
2023-05-03T14:03:54.775Z,3.50
2023-05-03T14:06:23.579Z,3.33
2023-05-03T14:08:50.298Z,3.10
2023-05-03T14:11:18.346Z,3.58
2023-05-03T14:13:56.441Z,4.13
2023-05-03T14:16:36.397Z,3.72
2023-05-03T14:19:07.540Z,3.20
2023-05-03T14:21:34.377Z,3.13
2023-05-03T14:24:01.678Z,3.60
2023-05-03T14:26:29.550Z,3.53
2023-05-03T14:28:56.414Z,3.45
2023-05-03T14:31:23.045Z,3.38
2023-05-03T14:33:49.827Z,3.70
2023-05-03T14:36:16.478Z,3.40
2023-05-03T14:38:43.417Z,4.20
2023-05-03T14:41:10.052Z,3.50
2023-05-03T14:43:37.432Z,3.60
2023-05-03T14:46:04.341Z,4.10
2023-05-03T14:48:31.019Z,4.00
2023-05-03T14:50:57.731Z,3.70
2023-05-03T14:53:24.433Z,3.35
2023-05-03T14:55:51.552Z,4.43
2023-05-03T14:58:18.839Z,3.40
2023-05-03T15:00:46.007Z,3.80
2023-05-03T15:03:13.871Z,3.70
2023-05-03T15:05:47.154Z,3.78
2023-05-03T15:08:15.224Z,3.65
2023-05-03T15:10:44.362Z,3.50
2023-05-03T15:13:12.209Z,3.55
2023-05-03T15:15:39.981Z,3.55
2023-05-03T15:18:08.526Z,2.72
2023-05-03T15:20:35.676Z,2.97
2023-05-03T15:23:04.407Z,3.55
2023-05-03T15:25:31.749Z,3.00
2023-05-03T15:27:59.975Z,3.33
2023-05-03T15:30:28.784Z,3.15
2023-05-03T15:32:55.525Z,2.85
2023-05-03T15:35:22.309Z,2.42
2023-05-03T15:37:49.319Z,2.47
2023-05-03T15:40:18.505Z,2.50
2023-05-03T15:42:45.234Z,2.33
2023-05-03T15:45:12.903Z,1.90
2023-05-03T15:47:40.016Z,1.70
2023-05-03T15:50:07.702Z,1.55
2023-05-03T15:52:34.970Z,1.88
2023-05-03T15:55:02.250Z,1.80
2023-05-03T15:57:30.225Z,1.73
2023-05-03T15:59:57.245Z,1.70
2023-05-03T16:02:23.969Z,1.58
2023-05-03T16:04:50.924Z,1.83
2023-05-03T16:07:18.126Z,1.52
2023-05-03T16:09:46.064Z,1.98
2023-05-03T16:12:12.734Z,1.77
2023-05-03T16:14:39.775Z,1.77
2023-05-03T16:17:06.695Z,1.50
2023-05-03T16:19:33.443Z,2.10
2023-05-03T16:22:00.155Z,1.90
2023-05-03T16:24:26.862Z,2.22
2023-05-03T16:26:53.981Z,2.20
2023-05-03T16:29:21.019Z,2.05
2023-05-03T16:31:47.840Z,2.10
2023-05-03T16:34:14.547Z,1.80
2023-05-03T16:36:43.029Z,2.17
2023-05-03T16:39:11.319Z,1.90
2023-05-03T16:41:38.524Z,1.45
2023-05-03T16:44:06.284Z,1.35
2023-05-03T16:46:36.624Z,1.65
2023-05-03T16:51:31.498Z,1.70
2023-05-03T16:54:02.344Z,1.60
2023-05-03T16:56:30.772Z,1.50
2023-05-03T16:58:57.587Z,1.92
2023-05-03T17:01:24.196Z,1.95
2023-05-03T17:03:51.129Z,1.65
2023-05-03T17:06:18.383Z,1.83
2023-05-03T17:08:45.370Z,1.90
2023-05-03T17:11:15.178Z,1.70
2023-05-03T17:13:42.042Z,1.83
2023-05-03T17:16:10.443Z,1.90
2023-05-03T17:18:37.948Z,2.30
2023-05-03T17:21:04.989Z,2.25
2023-05-03T17:23:36.172Z,2.67
2023-05-03T17:26:04.094Z,2.85
2023-05-03T17:28:31.682Z,2.67
2023-05-03T17:30:58.856Z,3.20
2023-05-03T17:33:26.004Z,2.70
2023-05-03T17:35:53.221Z,3.03
2023-05-03T17:38:19.854Z,2.78
2023-05-03T17:40:46.653Z,2.70
2023-05-03T17:43:14.128Z,3.22
2023-05-03T17:45:43.690Z,2.47
2023-05-03T17:48:11.177Z,2.58
2023-05-03T17:50:38.286Z,2.63
2023-05-03T17:53:05.047Z,2.50
2023-05-03T17:55:35.480Z,2.63
2023-05-03T18:00:29.741Z,2.38
2023-05-03T18:02:56.991Z,2.90
2023-05-03T18:05:24.097Z,2.45
2023-05-03T18:07:50.816Z,3.13
2023-05-03T18:10:17.929Z,2.45
2023-05-03T18:12:44.585Z,2.50
2023-05-03T18:15:11.487Z,2.75
2023-05-03T18:17:38.314Z,2.90
2023-05-03T18:20:06.546Z,2.75
2023-05-03T18:22:33.807Z,2.40
2023-05-03T18:25:02.170Z,2.60
2023-05-03T18:27:29.361Z,2.70
2023-05-03T18:29:56.181Z,2.50
2023-05-03T18:32:25.655Z,2.45
2023-05-03T18:34:52.521Z,2.93
2023-05-03T18:37:19.124Z,2.80
2023-05-03T18:39:45.882Z,3.22
2023-05-03T18:42:12.944Z,3.30
2023-05-03T18:44:39.706Z,2.55
2023-05-03T18:47:07.633Z,3.10
2023-05-03T18:49:34.615Z,2.92
2023-05-03T18:52:02.356Z,3.05
2023-05-03T18:54:29.054Z,2.70
2023-05-03T18:56:55.741Z,2.70
2023-05-03T18:59:22.341Z,2.90
2023-05-03T19:01:50.600Z,3.00
2023-05-03T19:04:17.397Z,2.90
2023-05-03T19:06:44.183Z,3.30
2023-05-03T19:09:11.980Z,3.55
2023-05-03T19:11:42.713Z,2.70
2023-05-03T19:14:09.539Z,3.00
2023-05-03T19:16:36.907Z,2.97
2023-05-03T19:19:03.641Z,2.63
2023-05-03T19:21:30.317Z,3.00
2023-05-03T19:23:56.966Z,3.25
2023-05-03T19:26:24.525Z,3.13
2023-05-03T19:28:51.323Z,2.78
2023-05-03T19:31:18.035Z,2.85
2023-05-03T19:33:44.691Z,3.13
2023-05-03T19:36:14.968Z,2.80
2023-05-03T19:38:41.746Z,3.05
2023-05-03T19:41:11.998Z,3.00
2023-05-03T19:43:39.503Z,2.90
2023-05-03T19:46:07.152Z,3.08
2023-05-03T19:48:34.334Z,3.13
2023-05-03T19:51:01.199Z,3.40
2023-05-03T19:53:28.397Z,3.15
2023-05-03T19:55:59.288Z,2.97
2023-05-03T19:58:27.226Z,3.42
2023-05-03T20:00:54.655Z,2.97
2023-05-03T20:03:23.001Z,3.03
2023-05-03T20:05:50.263Z,3.53
2023-05-03T20:08:17.341Z,3.60
2023-05-03T20:10:46.267Z,3.70
2023-05-03T20:13:13.432Z,3.47
2023-05-03T20:15:40.868Z,3.65
2023-05-03T20:18:07.688Z,3.30
2023-05-03T20:20:34.499Z,3.60
2023-05-03T20:23:01.141Z,3.35
2023-05-03T20:25:27.912Z,3.95
2023-05-03T20:27:54.648Z,4.00
2023-05-03T20:30:21.519Z,3.78
2023-05-03T20:32:48.400Z,4.40
2023-05-03T20:35:15.394Z,4.20
2023-05-03T20:37:42.176Z,4.43
2023-05-03T20:40:11.176Z,4.20
2023-05-03T20:42:37.857Z,4.15
2023-05-03T20:45:05.562Z,4.32
2023-05-03T20:47:32.673Z,4.22
2023-05-03T20:49:59.933Z,4.43
2023-05-03T20:52:26.587Z,3.90
2023-05-03T20:54:53.240Z,4.20
2023-05-03T20:57:19.925Z,5.05
2023-05-03T20:59:46.535Z,4.43
2023-05-03T21:02:13.233Z,4.47
2023-05-03T21:04:40.096Z,4.40
2023-05-03T21:07:06.732Z,4.60
2023-05-03T21:09:33.555Z,4.28
2023-05-03T21:12:01.483Z,4.35
2023-05-03T21:14:28.803Z,4.90
2023-05-03T21:16:55.700Z,5.60
2023-05-03T21:19:22.395Z,5.70
2023-05-03T21:21:49.125Z,5.88
2023-05-03T21:24:15.776Z,5.60
2023-05-03T21:26:42.439Z,5.85
2023-05-03T21:29:09.342Z,4.88
2023-05-03T21:31:35.960Z,4.22
2023-05-03T21:34:04.005Z,4.05
2023-05-03T21:36:32.051Z,4.30
2023-05-03T21:38:58.853Z,4.40
2023-05-03T21:41:25.477Z,4.72
2023-05-03T21:43:52.301Z,4.72
2023-05-03T21:46:19.129Z,5.20
2023-05-03T21:48:45.811Z,5.05
2023-05-03T21:51:19.528Z,4.57
2023-05-03T21:53:48.391Z,4.88
2023-05-03T21:56:15.469Z,5.07
2023-05-03T21:58:44.363Z,5.20
2023-05-03T22:01:11.755Z,5.28
2023-05-03T22:06:08.456Z,4.93
2023-05-03T22:08:35.202Z,4.82
2023-05-03T22:11:05.027Z,5.50
2023-05-03T22:13:32.090Z,5.80
2023-05-03T22:16:06.960Z,5.50
2023-05-03T22:18:34.796Z,5.50
2023-05-03T22:21:02.618Z,5.82
2023-05-03T22:23:29.589Z,5.50
2023-05-03T22:25:56.381Z,5.88
2023-05-03T22:28:23.371Z,6.57
2023-05-03T22:30:50.057Z,5.68
2023-05-03T22:33:16.718Z,5.90
2023-05-03T22:35:43.574Z,6.93
2023-05-03T22:38:10.236Z,7.07
2023-05-03T22:40:36.826Z,7.15
2023-05-03T22:43:03.582Z,6.57
2023-05-03T22:45:30.539Z,6.38
2023-05-03T22:47:58.864Z,6.95
2023-05-03T22:50:25.540Z,6.57
2023-05-03T22:52:52.210Z,7.07
2023-05-03T22:55:18.938Z,6.85
2023-05-03T22:57:45.705Z,6.65
2023-05-03T23:00:13.002Z,6.78
2023-05-03T23:02:39.693Z,7.03
2023-05-03T23:05:07.083Z,6.78
2023-05-03T23:07:33.788Z,6.97
2023-05-03T23:10:04.958Z,7.05
2023-05-03T23:12:32.290Z,7.25
2023-05-03T23:14:59.121Z,6.55
2023-05-03T23:17:25.970Z,7.35
2023-05-03T23:19:53.451Z,6.97
2023-05-03T23:22:20.042Z,6.28
2023-05-03T23:24:47.012Z,7.15
2023-05-03T23:27:13.796Z,7.45
2023-05-03T23:29:41.111Z,6.90
2023-05-03T23:32:08.293Z,7.47
2023-05-03T23:34:35.518Z,7.05
2023-05-03T23:37:02.257Z,6.82
2023-05-03T23:39:28.991Z,7.32
2023-05-03T23:41:55.566Z,7.40
2023-05-03T23:44:22.270Z,7.00
2023-05-03T23:46:48.877Z,6.82
2023-05-03T23:49:15.617Z,6.78
2023-05-03T23:51:42.276Z,7.28
2023-05-03T23:54:09.013Z,6.97
2023-05-03T23:56:35.874Z,6.70
2023-05-03T23:59:03.626Z,6.85
